createdAt,value
2023-05-10T00:02:24.682Z,97.83
2023-05-10T00:05:01.625Z,98.03
2023-05-10T00:07:28.911Z,98.16
2023-05-10T00:10:02.533Z,98.29
2023-05-10T00:12:34.739Z,98.31
2023-05-10T00:15:13.172Z,98.66
2023-05-10T00:17:40.417Z,98.53
2023-05-10T00:20:18.592Z,98.80
2023-05-10T00:22:46.456Z,98.49
2023-05-10T00:25:24.150Z,98.67
2023-05-10T00:27:51.270Z,98.67
2023-05-10T00:30:34.861Z,98.70
2023-05-10T00:33:11.109Z,98.78
2023-05-10T00:35:39.624Z,98.83
2023-05-10T00:38:15.553Z,98.77
2023-05-10T00:40:43.452Z,98.90
2023-05-10T00:43:17.517Z,99.05
2023-05-10T00:45:54.741Z,99.11
2023-05-10T00:48:29.499Z,98.96
2023-05-10T00:50:57.037Z,99.29
2023-05-10T00:53:34.569Z,99.28
2023-05-10T00:56:09.428Z,99.49
2023-05-10T00:58:37.047Z,99.12
2023-05-10T01:01:13.062Z,99.15
2023-05-10T01:03:53.054Z,99.35
2023-05-10T01:06:20.574Z,99.27
2023-05-10T01:08:59.543Z,99.36
2023-05-10T01:11:33.546Z,99.45
2023-05-10T01:14:07.108Z,99.53
2023-05-10T01:16:45.402Z,99.54
2023-05-10T01:19:29.524Z,99.32
2023-05-10T01:22:09.935Z,99.28
2023-05-10T01:25:20.975Z,99.34
2023-05-10T01:28:07.495Z,99.59
2023-05-10T01:31:04.544Z,99.74
2023-05-10T01:33:47.586Z,99.59
2023-05-10T01:36:41.865Z,99.36
2023-05-10T01:39:21.761Z,99.51
2023-05-10T01:42:11.484Z,99.70
2023-05-10T01:45:12.163Z,99.66
2023-05-10T01:48:15.921Z,99.86
2023-05-10T01:50:47.965Z,100.00
2023-05-10T01:53:26.612Z,99.68
2023-05-10T01:56:03.515Z,100.00
2023-05-10T01:58:40.455Z,99.41
2023-05-10T02:01:16.502Z,99.97
2023-05-10T02:03:51.749Z,100.00
2023-05-10T02:06:33.475Z,99.70
2023-05-10T02:09:13.536Z,99.56
2023-05-10T02:11:53.412Z,99.63
2023-05-10T02:14:21.817Z,99.51
2023-05-10T02:16:58.669Z,99.51
2023-05-10T02:19:33.353Z,99.41
2023-05-10T02:22:11.699Z,99.65
2023-05-10T02:24:49.561Z,99.70
2023-05-10T02:27:24.539Z,99.73
2023-05-10T02:29:58.650Z,99.77
2023-05-10T02:32:37.665Z,99.49
2023-05-10T02:35:15.947Z,99.62
2023-05-10T02:37:51.535Z,99.56
2023-05-10T02:40:28.665Z,99.67
2023-05-10T02:43:04.552Z,99.63
2023-05-10T02:46:00.207Z,99.58
2023-05-10T02:48:39.458Z,99.62
2023-05-10T02:51:15.782Z,99.63
2023-05-10T02:53:57.450Z,99.41
2023-05-10T02:56:40.629Z,99.68
2023-05-10T02:59:14.613Z,99.64
2023-05-10T03:01:50.664Z,99.52
2023-05-10T03:04:24.679Z,99.51
2023-05-10T03:07:01.671Z,99.51
2023-05-10T03:09:29.565Z,99.72
2023-05-10T03:12:35.666Z,99.27
2023-05-10T03:15:29.492Z,99.56
2023-05-10T03:18:21.300Z,99.69
2023-05-10T03:21:12.639Z,99.41
2023-05-10T03:23:58.458Z,99.60
2023-05-10T03:26:34.621Z,99.75
2023-05-10T03:29:12.095Z,99.73
2023-05-10T03:31:49.815Z,99.83
2023-05-10T03:34:24.586Z,99.58
2023-05-10T03:36:52.042Z,99.84
2023-05-10T03:39:26.563Z,100.00
2023-05-10T03:41:57.149Z,99.90
2023-05-10T03:44:36.463Z,99.80
2023-05-10T03:47:23.689Z,99.83
2023-05-10T03:49:57.607Z,99.76
2023-05-10T03:52:25.110Z,99.79
2023-05-10T03:54:58.652Z,100.00
2023-05-10T03:57:32.529Z,100.00
2023-05-10T04:00:00.071Z,100.00
2023-05-10T04:02:38.526Z,99.96
2023-05-10T04:05:12.752Z,100.00
2023-05-10T04:07:49.599Z,99.92
2023-05-10T04:10:17.944Z,100.00
2023-05-10T04:12:51.738Z,100.00
2023-05-10T04:15:19.322Z,100.00
2023-05-10T04:17:56.654Z,100.00
2023-05-10T04:20:24.327Z,100.00
2023-05-10T04:22:54.582Z,100.00
2023-05-10T04:25:29.672Z,100.00
2023-05-10T04:27:59.392Z,100.00
2023-05-10T04:30:33.758Z,100.00
2023-05-10T04:33:09.148Z,100.00
2023-05-10T04:35:36.955Z,100.00
2023-05-10T04:38:17.451Z,100.00
2023-05-10T04:40:51.657Z,100.00
2023-05-10T04:43:27.988Z,100.00
2023-05-10T04:46:15.680Z,100.00
2023-05-10T04:48:54.743Z,100.00
2023-05-10T04:51:24.424Z,100.00
2023-05-10T04:54:06.238Z,100.00
2023-05-10T04:57:08.970Z,100.00
2023-05-10T04:59:50.919Z,100.00
2023-05-10T05:02:23.512Z,100.00
2023-05-10T05:04:59.374Z,100.00
2023-05-10T05:07:42.725Z,100.00
2023-05-10T05:10:15.297Z,100.00
2023-05-10T05:12:52.439Z,100.00
2023-05-10T05:15:28.777Z,100.00
2023-05-10T05:18:05.878Z,100.00
2023-05-10T05:20:42.914Z,100.00
2023-05-10T05:23:16.882Z,100.00
2023-05-10T05:25:52.669Z,100.00
2023-05-10T05:28:23.577Z,100.00
2023-05-10T05:31:01.060Z,100.00
2023-05-10T05:33:34.681Z,100.00
2023-05-10T05:36:07.313Z,100.00
2023-05-10T05:38:42.742Z,100.00
2023-05-10T05:41:16.726Z,100.00
2023-05-10T05:43:50.693Z,100.00
2023-05-10T05:46:27.293Z,100.00
2023-05-10T05:49:05.510Z,100.00
2023-05-10T05:51:41.762Z,100.00
2023-05-10T05:54:16.571Z,100.00
2023-05-10T05:56:46.510Z,100.00
2023-05-10T05:59:16.397Z,100.00
2023-05-10T06:02:02.448Z,100.00
2023-05-10T06:04:36.654Z,100.00
2023-05-10T06:07:06.729Z,100.00
2023-05-10T06:09:40.729Z,100.00
2023-05-10T06:12:10.203Z,100.00
2023-05-10T06:14:44.679Z,100.00
2023-05-10T06:17:12.442Z,100.00
2023-05-10T06:19:48.317Z,100.00
2023-05-10T06:22:35.213Z,100.00
2023-05-10T06:25:03.835Z,100.00
2023-05-10T06:27:37.602Z,100.00
2023-05-10T06:30:13.385Z,100.00
2023-05-10T06:32:51.754Z,100.00
2023-05-10T06:35:20.181Z,100.00
2023-05-10T06:37:54.696Z,100.00
2023-05-10T06:40:22.468Z,100.00
2023-05-10T06:42:56.659Z,100.00
2023-05-10T06:45:30.961Z,100.00
2023-05-10T06:48:11.905Z,100.00
2023-05-10T06:50:41.596Z,100.00
2023-05-10T06:53:08.954Z,99.79
2023-05-10T06:55:42.785Z,99.56
2023-05-10T06:58:12.660Z,99.80
2023-05-10T07:00:48.752Z,99.73
2023-05-10T07:03:21.949Z,99.61
2023-05-10T07:05:58.653Z,99.63
2023-05-10T07:08:25.899Z,99.45
2023-05-10T07:11:02.654Z,99.39
2023-05-10T07:13:29.911Z,99.40
2023-05-10T07:16:06.724Z,100.00
2023-05-10T07:18:34.366Z,99.81
2023-05-10T07:21:10.708Z,99.95
2023-05-10T07:23:38.030Z,99.65
2023-05-10T07:26:11.761Z,99.21
2023-05-10T07:28:52.334Z,99.13
2023-05-10T07:31:22.766Z,99.26
2023-05-10T07:33:57.932Z,99.10
2023-05-10T07:36:24.808Z,98.75
2023-05-10T07:38:58.682Z,98.65
2023-05-10T07:41:25.675Z,97.95
2023-05-10T07:44:01.920Z,97.12
2023-05-10T07:46:38.386Z,97.30
2023-05-10T07:49:15.451Z,96.93
2023-05-10T07:51:43.901Z,96.76
2023-05-10T07:54:17.682Z,97.11
2023-05-10T07:56:48.616Z,97.30
2023-05-10T07:59:25.575Z,97.32
2023-05-10T08:01:53.017Z,97.17
2023-05-10T08:04:26.846Z,96.92
2023-05-10T08:06:54.025Z,96.83
2023-05-10T08:09:31.700Z,96.84
2023-05-10T08:12:02.363Z,96.97
2023-05-10T08:14:37.624Z,96.92
2023-05-10T08:17:05.311Z,96.78
2023-05-10T08:19:39.664Z,96.91
2023-05-10T08:22:13.700Z,97.17
2023-05-10T08:24:49.753Z,96.94
2023-05-10T08:27:23.645Z,97.17
2023-05-10T08:29:51.166Z,97.38
2023-05-10T08:32:25.788Z,97.60
2023-05-10T08:34:53.027Z,97.47
2023-05-10T08:37:20.337Z,97.77
2023-05-10T08:39:55.794Z,97.63
2023-05-10T08:42:35.727Z,97.85
2023-05-10T08:45:18.013Z,98.20
2023-05-10T08:47:55.704Z,98.25
2023-05-10T08:50:35.896Z,98.41
2023-05-10T08:53:15.637Z,98.48
2023-05-10T08:55:54.821Z,98.55
2023-05-10T08:58:27.316Z,98.34
2023-05-10T09:01:03.708Z,98.45
2023-05-10T09:03:32.318Z,98.47
2023-05-10T09:06:05.793Z,98.50
2023-05-10T09:08:39.787Z,98.47
2023-05-10T09:11:16.754Z,98.59
2023-05-10T09:13:52.118Z,98.19
2023-05-10T09:16:25.776Z,98.26
2023-05-10T09:18:53.069Z,98.11
2023-05-10T09:21:34.837Z,97.38
2023-05-10T09:24:08.750Z,97.28
2023-05-10T09:26:43.734Z,96.57
2023-05-10T09:29:17.771Z,96.35
2023-05-10T09:31:54.771Z,96.25
2023-05-10T09:34:42.485Z,96.08
2023-05-10T09:37:18.261Z,96.40
2023-05-10T09:39:45.684Z,95.80
2023-05-10T09:42:19.779Z,95.76
2023-05-10T09:44:47.765Z,96.06
2023-05-10T09:47:27.710Z,95.29
2023-05-10T09:50:10.844Z,95.17
2023-05-10T09:52:55.768Z,95.00
2023-05-10T09:55:24.517Z,94.58
2023-05-10T09:58:07.771Z,94.69
2023-05-10T10:00:45.900Z,94.26
2023-05-10T10:03:30.365Z,94.01
2023-05-10T10:05:58.073Z,93.46
2023-05-10T10:08:32.707Z,92.55
2023-05-10T10:11:06.627Z,92.11
2023-05-10T10:13:33.685Z,92.18
2023-05-10T10:16:07.907Z,91.30
2023-05-10T10:18:37.377Z,89.37
2023-05-10T10:21:15.784Z,89.55
2023-05-10T10:23:48.162Z,88.95
2023-05-10T10:26:23.688Z,89.81
2023-05-10T10:29:13.343Z,87.87
2023-05-10T10:31:58.063Z,88.76
2023-05-10T10:34:42.465Z,87.34
2023-05-10T10:37:09.476Z,87.50
2023-05-10T10:39:44.659Z,87.32
2023-05-10T10:42:43.841Z,87.72
2023-05-10T10:45:15.522Z,86.75
2023-05-10T10:48:00.757Z,86.40
2023-05-10T10:50:50.450Z,86.99
2023-05-10T10:53:24.884Z,85.95
2023-05-10T10:56:26.299Z,85.06
2023-05-10T10:58:54.642Z,83.55
2023-05-10T11:01:28.907Z,84.44
2023-05-10T11:04:01.356Z,84.93
2023-05-10T11:06:41.763Z,85.05
2023-05-10T11:09:09.190Z,84.16
2023-05-10T11:12:07.113Z,83.74
2023-05-10T11:14:40.892Z,84.54
2023-05-10T11:17:28.864Z,83.82
2023-05-10T11:20:22.651Z,83.19
2023-05-10T11:22:53.096Z,79.86
2023-05-10T11:25:36.784Z,79.83
2023-05-10T11:28:05.782Z,77.57
2023-05-10T11:30:38.778Z,77.29
2023-05-10T11:33:06.858Z,78.16
2023-05-10T11:35:50.062Z,77.88
2023-05-10T11:38:17.100Z,76.94
2023-05-10T11:40:51.754Z,77.15
2023-05-10T11:43:18.686Z,76.05
2023-05-10T11:45:59.797Z,75.99
2023-05-10T11:48:33.775Z,75.09
2023-05-10T11:51:09.827Z,75.26
2023-05-10T11:53:36.761Z,76.18
2023-05-10T11:56:14.838Z,75.65
2023-05-10T11:58:47.733Z,77.61
2023-05-10T12:01:14.698Z,76.23
2023-05-10T12:03:47.817Z,77.19
2023-05-10T12:06:14.826Z,76.12
2023-05-10T12:08:55.707Z,74.69
2023-05-10T12:11:27.056Z,74.86
2023-05-10T12:14:01.764Z,75.87
2023-05-10T12:16:31.250Z,75.75
2023-05-10T12:19:06.800Z,76.95
2023-05-10T12:21:34.625Z,76.89
2023-05-10T12:24:10.890Z,76.10
2023-05-10T12:29:29.784Z,77.17
2023-05-10T12:31:59.250Z,76.23
2023-05-10T12:34:39.858Z,77.75
2023-05-10T12:37:06.795Z,76.72
2023-05-10T12:39:50.702Z,75.96
2023-05-10T12:42:26.283Z,75.42
2023-05-10T12:45:04.723Z,76.01
2023-05-10T12:47:39.496Z,76.07
2023-05-10T12:50:15.187Z,74.91
2023-05-10T12:52:48.716Z,74.71
2023-05-10T12:55:18.341Z,72.43
2023-05-10T12:57:51.707Z,73.46
2023-05-10T13:00:19.043Z,72.03
2023-05-10T13:02:52.888Z,71.90
2023-05-10T13:05:20.005Z,72.32
2023-05-10T13:07:53.850Z,71.94
2023-05-10T13:10:20.733Z,72.05
2023-05-10T13:12:53.710Z,72.62
2023-05-10T13:15:21.112Z,72.52
2023-05-10T13:17:54.749Z,72.73
2023-05-10T13:20:22.075Z,73.84
2023-05-10T13:22:55.728Z,75.20
2023-05-10T13:25:22.668Z,73.77
2023-05-10T13:27:55.779Z,73.54
2023-05-10T13:30:31.770Z,71.76
2023-05-10T13:33:04.784Z,73.39
2023-05-10T13:35:37.802Z,72.65
2023-05-10T13:38:04.662Z,71.41
2023-05-10T13:40:37.879Z,71.66
2023-05-10T13:43:04.685Z,71.91
2023-05-10T13:45:37.724Z,73.77
2023-05-10T13:48:17.780Z,74.06
2023-05-10T13:50:51.848Z,73.35
2023-05-10T13:53:18.685Z,75.03
2023-05-10T13:55:51.889Z,71.72
2023-05-10T13:58:19.228Z,72.07
2023-05-10T14:00:46.735Z,70.38
2023-05-10T14:03:19.936Z,70.54
2023-05-10T14:05:53.831Z,71.50
2023-05-10T14:11:14.764Z,71.73
2023-05-10T14:13:41.659Z,71.13
2023-05-10T14:16:14.864Z,71.09
2023-05-10T14:18:41.852Z,72.51
2023-05-10T14:21:09.033Z,72.18
2023-05-10T14:23:42.760Z,71.68
2023-05-10T14:26:15.942Z,70.86
2023-05-10T14:28:49.825Z,71.20
2023-05-10T14:31:18.125Z,71.71
2023-05-10T14:33:52.565Z,71.31
2023-05-10T14:36:32.804Z,71.70
2023-05-10T14:38:59.837Z,71.34
2023-05-10T14:41:32.760Z,72.05
2023-05-10T14:43:59.580Z,73.36
2023-05-10T14:46:32.828Z,74.76
2023-05-10T14:49:12.833Z,74.85
2023-05-10T14:51:39.951Z,75.36
2023-05-10T14:54:13.804Z,75.73
2023-05-10T14:56:48.780Z,76.18
2023-05-10T14:59:15.618Z,76.86
2023-05-10T15:01:50.333Z,76.11
2023-05-10T15:04:18.099Z,76.76
2023-05-10T15:06:51.935Z,76.56
2023-05-10T15:09:18.965Z,76.83
2023-05-10T15:11:52.787Z,76.67
2023-05-10T15:14:25.889Z,76.44
2023-05-10T15:16:55.569Z,75.94
2023-05-10T15:19:31.512Z,75.86
2023-05-10T15:22:04.888Z,76.15
2023-05-10T15:24:47.839Z,76.35
2023-05-10T15:27:14.800Z,75.04
2023-05-10T15:29:47.907Z,75.51
2023-05-10T15:32:14.786Z,74.64
2023-05-10T15:34:48.847Z,74.98
2023-05-10T15:37:15.692Z,73.69
2023-05-10T15:39:48.918Z,73.28
2023-05-10T15:42:21.898Z,72.89
2023-05-10T15:44:51.370Z,73.98
2023-05-10T15:47:24.810Z,73.92
2023-05-10T15:49:57.823Z,75.00
2023-05-10T15:52:30.842Z,73.29
2023-05-10T15:54:57.714Z,73.80
2023-05-10T15:57:35.650Z,74.68
2023-05-10T16:00:04.181Z,74.94
2023-05-10T16:02:39.171Z,73.71
2023-05-10T16:05:13.259Z,72.15
2023-05-10T16:07:48.856Z,70.55
2023-05-10T16:10:15.718Z,70.86
2023-05-10T16:12:48.930Z,70.27
2023-05-10T16:15:16.451Z,70.84
2023-05-10T16:17:50.367Z,68.00
2023-05-10T16:20:17.935Z,69.67
2023-05-10T16:22:50.894Z,69.02
2023-05-10T16:25:25.145Z,68.31
2023-05-10T16:27:52.004Z,68.99
2023-05-10T16:30:25.981Z,68.89
2023-05-10T16:32:53.030Z,67.68
2023-05-10T16:35:27.017Z,67.89
2023-05-10T16:37:59.894Z,69.32
2023-05-10T16:40:32.857Z,71.46
2023-05-10T16:42:59.702Z,70.50
2023-05-10T16:45:33.948Z,69.28
2023-05-10T16:48:08.241Z,69.08
2023-05-10T16:50:42.151Z,70.40
2023-05-10T16:53:15.946Z,70.35
2023-05-10T16:55:48.924Z,69.80
2023-05-10T16:58:21.941Z,69.79
2023-05-10T17:00:48.817Z,69.64
2023-05-10T17:03:22.053Z,70.32
2023-05-10T17:05:49.134Z,69.76
2023-05-10T17:08:22.842Z,72.08
2023-05-10T17:10:49.770Z,72.72
2023-05-10T17:13:23.911Z,72.24
2023-05-10T17:15:51.004Z,72.50
2023-05-10T17:18:24.963Z,72.21
2023-05-10T17:20:51.801Z,72.39
2023-05-10T17:23:24.992Z,74.23
2023-05-10T17:25:51.731Z,74.67
2023-05-10T17:28:25.050Z,74.13
2023-05-10T17:31:08.035Z,74.49
2023-05-10T17:33:35.200Z,74.82
2023-05-10T17:36:08.947Z,75.43
2023-05-10T17:38:36.708Z,76.66
2023-05-10T17:41:10.882Z,76.23
2023-05-10T17:43:38.012Z,76.75
2023-05-10T17:46:11.107Z,77.24
2023-05-10T17:48:46.729Z,76.82
2023-05-10T17:51:20.945Z,76.79
2023-05-10T17:53:56.910Z,76.55
2023-05-10T17:56:30.947Z,77.57
2023-05-10T17:58:57.857Z,77.79
2023-05-10T18:01:31.049Z,77.13
2023-05-10T18:04:04.945Z,76.63
2023-05-10T18:06:42.108Z,77.77
2023-05-10T18:09:14.948Z,79.39
2023-05-10T18:11:50.799Z,79.22
2023-05-10T18:14:39.038Z,80.00
2023-05-10T18:17:09.875Z,80.78
2023-05-10T18:19:45.535Z,80.85
2023-05-10T18:22:12.706Z,81.14
2023-05-10T18:24:46.091Z,81.86
2023-05-10T18:27:20.115Z,82.00
2023-05-10T18:29:49.988Z,82.64
2023-05-10T18:32:25.946Z,82.64
2023-05-10T18:35:01.222Z,83.09
2023-05-10T18:37:34.191Z,83.03
2023-05-10T18:40:14.943Z,82.18
2023-05-10T18:42:51.018Z,83.08
2023-05-10T18:45:23.749Z,82.87
2023-05-10T18:47:57.135Z,83.56
2023-05-10T18:50:27.165Z,84.04
2023-05-10T18:53:06.665Z,84.75
2023-05-10T18:55:36.096Z,85.10
2023-05-10T18:58:10.025Z,85.51
2023-05-10T19:00:42.678Z,85.73
2023-05-10T19:03:23.024Z,85.99
2023-05-10T19:05:50.298Z,86.03
2023-05-10T19:08:26.170Z,86.10
2023-05-10T19:10:53.110Z,85.77
2023-05-10T19:13:28.415Z,86.11
2023-05-10T19:16:23.156Z,85.13
2023-05-10T19:18:57.762Z,85.62
2023-05-10T19:21:32.495Z,85.88
2023-05-10T19:24:01.593Z,86.20
2023-05-10T19:26:36.326Z,87.02
2023-05-10T19:29:10.092Z,87.60
2023-05-10T19:31:46.800Z,87.85
2023-05-10T19:34:22.773Z,88.08
2023-05-10T19:36:53.161Z,88.14
2023-05-10T19:39:28.358Z,87.79
2023-05-10T19:41:55.595Z,87.55
2023-05-10T19:44:33.043Z,87.32
2023-05-10T19:47:08.038Z,87.53
2023-05-10T19:49:48.218Z,87.92
2023-05-10T19:52:17.495Z,88.11
2023-05-10T19:54:54.848Z,88.14
2023-05-10T19:57:22.307Z,88.06
2023-05-10T19:59:56.149Z,88.44
2023-05-10T20:02:32.781Z,89.05
2023-05-10T20:05:07.313Z,89.52
2023-05-10T20:07:36.561Z,89.27
2023-05-10T20:10:13.227Z,89.44
2023-05-10T20:12:50.060Z,89.63
2023-05-10T20:15:28.170Z,89.84
2023-05-10T20:18:07.727Z,89.69
2023-05-10T20:20:35.231Z,89.78
2023-05-10T20:23:09.171Z,90.04
2023-05-10T20:25:40.610Z,90.61
2023-05-10T20:28:15.064Z,90.49
2023-05-10T20:30:45.268Z,91.01
2023-05-10T20:33:22.163Z,90.97
2023-05-10T20:35:57.218Z,91.18
2023-05-10T20:38:29.756Z,91.47
2023-05-10T20:41:05.998Z,91.39
2023-05-10T20:43:40.166Z,91.75
2023-05-10T20:46:18.292Z,91.44
2023-05-10T20:48:55.174Z,90.88
2023-05-10T20:51:31.432Z,91.49
2023-05-10T20:54:05.174Z,91.60
2023-05-10T20:56:35.307Z,91.86
2023-05-10T20:59:09.061Z,92.18
2023-05-10T21:01:38.426Z,92.30
2023-05-10T21:04:12.013Z,92.19
2023-05-10T21:06:41.905Z,92.47
2023-05-10T21:09:18.172Z,92.97
2023-05-10T21:11:48.342Z,92.84
2023-05-10T21:14:23.511Z,93.06
2023-05-10T21:16:51.631Z,93.36
2023-05-10T21:19:26.123Z,93.55
2023-05-10T21:22:02.206Z,93.56
2023-05-10T21:24:34.714Z,93.61
2023-05-10T21:27:10.155Z,93.46
2023-05-10T21:29:47.247Z,93.81
2023-05-10T21:32:27.177Z,93.83
2023-05-10T21:34:56.469Z,94.14
2023-05-10T21:37:30.179Z,93.91
2023-05-10T21:39:57.673Z,94.12
2023-05-10T21:42:31.130Z,93.78
2023-05-10T21:44:58.428Z,93.70
2023-05-10T21:47:32.179Z,93.94
2023-05-10T21:50:13.515Z,93.97
2023-05-10T21:52:47.161Z,94.27
2023-05-10T21:55:14.820Z,94.16
2023-05-10T21:57:49.197Z,94.22
2023-05-10T22:00:20.026Z,93.98
2023-05-10T22:02:54.412Z,94.13
2023-05-10T22:05:26.969Z,94.30
2023-05-10T22:08:01.231Z,94.31
2023-05-10T22:10:35.249Z,94.42
2023-05-10T22:13:09.181Z,94.67
2023-05-10T22:15:43.166Z,94.42
2023-05-10T22:18:10.717Z,94.62
2023-05-10T22:20:44.135Z,94.64
2023-05-10T22:23:13.904Z,94.60
2023-05-10T22:25:50.869Z,94.67
2023-05-10T22:28:18.108Z,94.44
2023-05-10T22:30:52.320Z,94.64
2023-05-10T22:33:19.609Z,94.66
2023-05-10T22:35:55.235Z,94.87
2023-05-10T22:38:28.722Z,94.77
2023-05-10T22:41:08.201Z,94.78
2023-05-10T22:43:35.779Z,94.68
2023-05-10T22:46:12.189Z,94.96
2023-05-10T22:48:52.839Z,94.86
2023-05-10T22:51:34.290Z,94.93
2023-05-10T22:54:01.585Z,95.29
2023-05-10T22:56:38.118Z,95.28
2023-05-10T22:59:08.421Z,95.21
2023-05-10T23:01:45.455Z,95.23
2023-05-10T23:04:12.828Z,95.09
2023-05-10T23:06:47.185Z,94.69
2023-05-10T23:09:21.157Z,95.25
2023-05-10T23:11:48.362Z,95.55
2023-05-10T23:14:24.894Z,95.72
2023-05-10T23:16:55.355Z,95.40
2023-05-10T23:19:29.269Z,95.67
2023-05-10T23:21:56.808Z,96.09
2023-05-10T23:24:33.202Z,95.84
2023-05-10T23:27:00.707Z,95.53
2023-05-10T23:29:39.229Z,95.73
2023-05-10T23:32:06.824Z,95.99
2023-05-10T23:34:40.192Z,96.00
2023-05-10T23:37:10.521Z,96.08
2023-05-10T23:39:48.778Z,96.13
2023-05-10T23:42:16.081Z,96.18
2023-05-10T23:44:50.212Z,96.45
2023-05-10T23:47:37.287Z,95.96
2023-05-10T23:50:12.123Z,96.10
2023-05-10T23:52:46.303Z,96.28
2023-05-10T23:55:16.898Z,96.38
2023-05-10T23:57:51.378Z,96.39
